Holiday, Florida
Current Conditions -  °F | °C
As of 9:15 PM on Friday 19 Dec 2014 (Local Time) from KCLW Reporting Station
Clear Clear  
Wind Chill: 61°   Ceiling: Unl
Heat Index: 61°   Visibility: 10mi
Dew Point: 45°   Wind: 3mph
Humidity: 55%   Direction: 100°E
Pressure: 30.08"   Gusts: NA
Location:  28.19°N, 82.74°W
Report Text: KCLW 200215Z AUTO 10003KT 10SM CLR 16/07 A3008 RMK AO2
Loading
Personal Weather Stations






























Interactive Weather Map New forecast layout! Learn more

10-Day Weather Forecast

Advertisements
Track Severe Weather on mobile